sensor_id;sensor_type;location;lat;lon;timestamp;temperature;humidity
80132;SHT30;69442;51.442;10.564;2023-08-06T00:01:12;18.35;60.54
80132;SHT30;69442;51.442;10.564;2023-08-06T00:03:38;18.35;60.66
80132;SHT30;69442;51.442;10.564;2023-08-06T00:06:05;18.32;60.74
80132;SHT30;69442;51.442;10.564;2023-08-06T00:08:31;18.33;60.75
80132;SHT30;69442;51.442;10.564;2023-08-06T00:10:56;18.28;60.70
80132;SHT30;69442;51.442;10.564;2023-08-06T00:13:22;18.25;60.85
80132;SHT30;69442;51.442;10.564;2023-08-06T00:15:47;18.22;60.87
80132;SHT30;69442;51.442;10.564;2023-08-06T00:18:12;18.19;60.81
80132;SHT30;69442;51.442;10.564;2023-08-06T00:20:40;18.16;61.05
80132;SHT30;69442;51.442;10.564;2023-08-06T00:23:07;18.15;60.93
80132;SHT30;69442;51.442;10.564;2023-08-06T00:25:33;18.11;61.02
80132;SHT30;69442;51.442;10.564;2023-08-06T00:27:59;18.09;61.22
80132;SHT30;69442;51.442;10.564;2023-08-06T00:30:24;18.11;61.09
80132;SHT30;69442;51.442;10.564;2023-08-06T00:32:49;18.09;61.08
80132;SHT30;69442;51.442;10.564;2023-08-06T00:35:15;18.04;61.12
80132;SHT30;69442;51.442;10.564;2023-08-06T00:37:40;18.02;61.15
80132;SHT30;69442;51.442;10.564;2023-08-06T00:40:06;18.01;61.05
80132;SHT30;69442;51.442;10.564;2023-08-06T00:42:33;18.01;61.08
80132;SHT30;69442;51.442;10.564;2023-08-06T00:44:59;17.95;60.99
80132;SHT30;69442;51.442;10.564;2023-08-06T00:47:25;17.94;61.04
80132;SHT30;69442;51.442;10.564;2023-08-06T00:49:51;17.94;61.11
80132;SHT30;69442;51.442;10.564;2023-08-06T00:52:16;17.91;61.03
80132;SHT30;69442;51.442;10.564;2023-08-06T00:54:42;17.87;61.22
80132;SHT30;69442;51.442;10.564;2023-08-06T00:57:07;17.86;61.02
80132;SHT30;69442;51.442;10.564;2023-08-06T00:59:34;17.87;61.01
80132;SHT30;69442;51.442;10.564;2023-08-06T01:01:59;17.83;61.13
80132;SHT30;69442;51.442;10.564;2023-08-06T01:04:25;17.81;61.21
80132;SHT30;69442;51.442;10.564;2023-08-06T01:13:13;17.74;61.70
80132;SHT30;69442;51.442;10.564;2023-08-06T01:15:46;17.73;61.28
80132;SHT30;69442;51.442;10.564;2023-08-06T01:18:13;17.71;61.16
80132;SHT30;69442;51.442;10.564;2023-08-06T01:20:38;17.66;61.17
80132;SHT30;69442;51.442;10.564;2023-08-06T01:23:04;17.65;61.12
80132;SHT30;69442;51.442;10.564;2023-08-06T01:25:34;17.62;61.32
80132;SHT30;69442;51.442;10.564;2023-08-06T01:28:06;17.62;61.35
80132;SHT30;69442;51.442;10.564;2023-08-06T01:30:33;17.62;61.19
80132;SHT30;69442;51.442;10.564;2023-08-06T01:33:04;17.56;61.27
80132;SHT30;69442;51.442;10.564;2023-08-06T01:35:32;17.56;61.16
80132;SHT30;69442;51.442;10.564;2023-08-06T01:38:00;17.52;61.13
80132;SHT30;69442;51.442;10.564;2023-08-06T01:40:25;17.47;61.07
80132;SHT30;69442;51.442;10.564;2023-08-06T01:42:53;17.50;61.02
80132;SHT30;69442;51.442;10.564;2023-08-06T01:45:19;17.47;61.01
80132;SHT30;69442;51.442;10.564;2023-08-06T01:47:44;17.45;61.16
80132;SHT30;69442;51.442;10.564;2023-08-06T01:50:09;17.40;61.11
80132;SHT30;69442;51.442;10.564;2023-08-06T01:52:35;17.42;61.13
80132;SHT30;69442;51.442;10.564;2023-08-06T01:55:00;17.36;61.22
80132;SHT30;69442;51.442;10.564;2023-08-06T01:57:25;17.35;61.19
80132;SHT30;69442;51.442;10.564;2023-08-06T01:59:51;17.36;61.22
80132;SHT30;69442;51.442;10.564;2023-08-06T02:02:16;17.32;61.27
80132;SHT30;69442;51.442;10.564;2023-08-06T02:04:41;17.29;61.45
80132;SHT30;69442;51.442;10.564;2023-08-06T02:07:07;17.28;61.52
80132;SHT30;69442;51.442;10.564;2023-08-06T02:09:32;17.26;61.54
80132;SHT30;69442;51.442;10.564;2023-08-06T02:11:58;17.31;61.73
80132;SHT30;69442;51.442;10.564;2023-08-06T02:14:23;17.26;61.64
80132;SHT30;69442;51.442;10.564;2023-08-06T02:16:48;17.25;61.64
80132;SHT30;69442;51.442;10.564;2023-08-06T02:19:14;17.24;61.60
80132;SHT30;69442;51.442;10.564;2023-08-06T02:21:40;17.22;61.60
80132;SHT30;69442;51.442;10.564;2023-08-06T02:24:05;17.25;61.68
80132;SHT30;69442;51.442;10.564;2023-08-06T02:26:31;17.19;61.62
80132;SHT30;69442;51.442;10.564;2023-08-06T02:28:56;17.18;61.81
80132;SHT30;69442;51.442;10.564;2023-08-06T02:31:21;17.18;61.84
80132;SHT30;69442;51.442;10.564;2023-08-06T02:33:47;17.16;61.77
80132;SHT30;69442;51.442;10.564;2023-08-06T02:36:12;17.15;61.77
80132;SHT30;69442;51.442;10.564;2023-08-06T02:38:37;17.14;61.86
80132;SHT30;69442;51.442;10.564;2023-08-06T02:41:03;17.12;61.89
80132;SHT30;69442;51.442;10.564;2023-08-06T02:43:29;17.10;61.94
80132;SHT30;69442;51.442;10.564;2023-08-06T02:45:58;17.10;62.13
80132;SHT30;69442;51.442;10.564;2023-08-06T02:48:24;17.07;61.91
80132;SHT30;69442;51.442;10.564;2023-08-06T02:50:49;17.04;61.88
80132;SHT30;69442;51.442;10.564;2023-08-06T02:53:14;17.05;61.99
80132;SHT30;69442;51.442;10.564;2023-08-06T02:55:47;17.00;62.30
80132;SHT30;69442;51.442;10.564;2023-08-06T02:58:16;17.00;62.52
80132;SHT30;69442;51.442;10.564;2023-08-06T03:00:43;16.95;62.47
80132;SHT30;69442;51.442;10.564;2023-08-06T03:03:09;16.94;62.48
80132;SHT30;69442;51.442;10.564;2023-08-06T03:05:34;16.92;62.49
80132;SHT30;69442;51.442;10.564;2023-08-06T03:08:00;16.92;62.33
80132;SHT30;69442;51.442;10.564;2023-08-06T03:10:25;16.88;62.33
80132;SHT30;69442;51.442;10.564;2023-08-06T03:12:51;16.88;62.36
80132;SHT30;69442;51.442;10.564;2023-08-06T03:15:16;16.88;62.31
80132;SHT30;69442;51.442;10.564;2023-08-06T03:17:41;16.87;62.24
80132;SHT30;69442;51.442;10.564;2023-08-06T03:20:07;16.84;62.24
80132;SHT30;69442;51.442;10.564;2023-08-06T03:22:32;16.85;62.12
80132;SHT30;69442;51.442;10.564;2023-08-06T03:24:58;16.84;62.22
80132;SHT30;69442;51.442;10.564;2023-08-06T03:27:23;16.81;62.35
80132;SHT30;69442;51.442;10.564;2023-08-06T03:29:49;16.84;63.05
80132;SHT30;69442;51.442;10.564;2023-08-06T03:32:17;16.77;62.87
80132;SHT30;69442;51.442;10.564;2023-08-06T03:34:43;16.79;62.92
80132;SHT30;69442;51.442;10.564;2023-08-06T03:37:08;16.77;63.00
80132;SHT30;69442;51.442;10.564;2023-08-06T03:39:34;16.74;63.07
80132;SHT30;69442;51.442;10.564;2023-08-06T03:41:59;16.74;63.04
80132;SHT30;69442;51.442;10.564;2023-08-06T03:44:24;16.73;63.20
80132;SHT30;69442;51.442;10.564;2023-08-06T03:46:52;16.73;63.28
80132;SHT30;69442;51.442;10.564;2023-08-06T03:49:17;16.70;63.32
80132;SHT30;69442;51.442;10.564;2023-08-06T03:51:42;16.71;63.31
80132;SHT30;69442;51.442;10.564;2023-08-06T03:54:08;16.69;63.31
80132;SHT30;69442;51.442;10.564;2023-08-06T03:56:33;16.67;63.54
80132;SHT30;69442;51.442;10.564;2023-08-06T03:58:58;16.64;63.60
80132;SHT30;69442;51.442;10.564;2023-08-06T04:01:24;16.63;63.51
80132;SHT30;69442;51.442;10.564;2023-08-06T04:03:49;16.64;63.41
80132;SHT30;69442;51.442;10.564;2023-08-06T04:06:14;16.63;63.44
80132;SHT30;69442;51.442;10.564;2023-08-06T04:08:40;16.63;63.49
80132;SHT30;69442;51.442;10.564;2023-08-06T04:11:05;16.60;63.48
80132;SHT30;69442;51.442;10.564;2023-08-06T04:13:31;16.62;63.48
80132;SHT30;69442;51.442;10.564;2023-08-06T04:16:03;16.57;63.68
80132;SHT30;69442;51.442;10.564;2023-08-06T04:18:28;16.56;63.55
80132;SHT30;69442;51.442;10.564;2023-08-06T04:20:54;16.55;63.52
80132;SHT30;69442;51.442;10.564;2023-08-06T04:23:20;16.57;63.54
80132;SHT30;69442;51.442;10.564;2023-08-06T04:25:46;16.52;63.58
80132;SHT30;69442;51.442;10.564;2023-08-06T04:28:11;16.53;63.47
80132;SHT30;69442;51.442;10.564;2023-08-06T04:30:37;16.51;63.45
80132;SHT30;69442;51.442;10.564;2023-08-06T04:33:02;16.48;63.46
80132;SHT30;69442;51.442;10.564;2023-08-06T04:35:28;16.49;63.48
80132;SHT30;69442;51.442;10.564;2023-08-06T04:37:53;16.46;63.43
80132;SHT30;69442;51.442;10.564;2023-08-06T04:40:19;16.48;63.42
80132;SHT30;69442;51.442;10.564;2023-08-06T04:42:44;16.46;63.42
80132;SHT30;69442;51.442;10.564;2023-08-06T04:45:09;16.45;63.59
80132;SHT30;69442;51.442;10.564;2023-08-06T04:47:35;16.45;63.58
80132;SHT30;69442;51.442;10.564;2023-08-06T04:50:00;16.46;63.62
80132;SHT30;69442;51.442;10.564;2023-08-06T04:52:26;16.42;63.83
80132;SHT30;69442;51.442;10.564;2023-08-06T04:54:56;16.45;64.29
80132;SHT30;69442;51.442;10.564;2023-08-06T04:57:21;16.39;64.16
80132;SHT30;69442;51.442;10.564;2023-08-06T04:59:47;16.36;64.28
80132;SHT30;69442;51.442;10.564;2023-08-06T05:02:12;16.41;64.29
80132;SHT30;69442;51.442;10.564;2023-08-06T05:04:38;16.36;64.37
80132;SHT30;69442;51.442;10.564;2023-08-06T05:07:04;16.38;64.44
80132;SHT30;69442;51.442;10.564;2023-08-06T05:09:30;16.39;64.41
80132;SHT30;69442;51.442;10.564;2023-08-06T05:11:55;16.39;64.38
80132;SHT30;69442;51.442;10.564;2023-08-06T05:14:21;16.38;64.40
80132;SHT30;69442;51.442;10.564;2023-08-06T05:16:46;16.41;64.43
80132;SHT30;69442;51.442;10.564;2023-08-06T05:19:11;16.39;64.40
80132;SHT30;69442;51.442;10.564;2023-08-06T05:21:37;16.39;64.46
80132;SHT30;69442;51.442;10.564;2023-08-06T05:24:02;16.38;64.51
80132;SHT30;69442;51.442;10.564;2023-08-06T05:26:28;16.38;64.55
80132;SHT30;69442;51.442;10.564;2023-08-06T05:28:53;16.36;64.53
80132;SHT30;69442;51.442;10.564;2023-08-06T05:31:18;16.38;64.47
80132;SHT30;69442;51.442;10.564;2023-08-06T05:33:44;16.38;64.42
80132;SHT30;69442;51.442;10.564;2023-08-06T05:36:09;16.39;64.60
80132;SHT30;69442;51.442;10.564;2023-08-06T05:38:35;16.38;64.60
80132;SHT30;69442;51.442;10.564;2023-08-06T05:41:00;16.38;64.65
80132;SHT30;69442;51.442;10.564;2023-08-06T05:43:25;16.39;64.74
80132;SHT30;69442;51.442;10.564;2023-08-06T05:45:51;16.39;64.77
80132;SHT30;69442;51.442;10.564;2023-08-06T05:48:16;16.42;64.82
80132;SHT30;69442;51.442;10.564;2023-08-06T05:50:42;16.42;64.78
80132;SHT30;69442;51.442;10.564;2023-08-06T05:53:07;16.45;64.79
80132;SHT30;69442;51.442;10.564;2023-08-06T05:55:33;16.46;64.83
80132;SHT30;69442;51.442;10.564;2023-08-06T05:57:59;16.51;64.90
80132;SHT30;69442;51.442;10.564;2023-08-06T06:00:24;16.52;64.68
80132;SHT30;69442;51.442;10.564;2023-08-06T06:02:50;16.51;64.78
80132;SHT30;69442;51.442;10.564;2023-08-06T06:05:15;16.56;64.88
80132;SHT30;69442;51.442;10.564;2023-08-06T06:07:41;16.59;64.84
80132;SHT30;69442;51.442;10.564;2023-08-06T06:10:07;16.60;65.02
80132;SHT30;69442;51.442;10.564;2023-08-06T06:12:32;16.64;64.93
80132;SHT30;69442;51.442;10.564;2023-08-06T06:14:58;16.70;65.05
80132;SHT30;69442;51.442;10.564;2023-08-06T06:17:23;16.73;65.16
80132;SHT30;69442;51.442;10.564;2023-08-06T06:19:49;16.77;65.21
80132;SHT30;69442;51.442;10.564;2023-08-06T06:22:14;16.77;65.44
80132;SHT30;69442;51.442;10.564;2023-08-06T06:24:39;16.80;65.50
80132;SHT30;69442;51.442;10.564;2023-08-06T06:27:05;16.85;65.66
80132;SHT30;69442;51.442;10.564;2023-08-06T06:29:30;16.87;65.71
80132;SHT30;69442;51.442;10.564;2023-08-06T06:31:56;16.87;65.60
80132;SHT30;69442;51.442;10.564;2023-08-06T06:34:21;16.92;65.61
80132;SHT30;69442;51.442;10.564;2023-08-06T06:36:47;16.97;65.42
80132;SHT30;69442;51.442;10.564;2023-08-06T06:39:13;16.98;65.14
80132;SHT30;69442;51.442;10.564;2023-08-06T06:41:38;17.03;64.93
80132;SHT30;69442;51.442;10.564;2023-08-06T06:44:05;17.05;64.78
80132;SHT30;69442;51.442;10.564;2023-08-06T06:46:30;17.10;64.77
80132;SHT30;69442;51.442;10.564;2023-08-06T06:48:55;17.12;64.53
80132;SHT30;69442;51.442;10.564;2023-08-06T06:51:21;17.15;64.46
80132;SHT30;69442;51.442;10.564;2023-08-06T06:53:46;17.19;64.41
80132;SHT30;69442;51.442;10.564;2023-08-06T06:56:12;17.22;64.31
80132;SHT30;69442;51.442;10.564;2023-08-06T06:58:37;17.25;64.32
80132;SHT30;69442;51.442;10.564;2023-08-06T07:01:04;17.32;64.24
80132;SHT30;69442;51.442;10.564;2023-08-06T07:03:29;17.36;64.09
80132;SHT30;69442;51.442;10.564;2023-08-06T07:05:58;17.39;64.21
80132;SHT30;69442;51.442;10.564;2023-08-06T07:08:24;17.42;63.97
80132;SHT30;69442;51.442;10.564;2023-08-06T07:10:50;17.46;63.75
80132;SHT30;69442;51.442;10.564;2023-08-06T07:13:15;17.49;63.67
80132;SHT30;69442;51.442;10.564;2023-08-06T07:15:41;17.57;63.52
80132;SHT30;69442;51.442;10.564;2023-08-06T07:18:07;17.63;63.43
80132;SHT30;69442;51.442;10.564;2023-08-06T07:20:32;17.69;63.22
80132;SHT30;69442;51.442;10.564;2023-08-06T07:22:59;17.74;63.16
80132;SHT30;69442;51.442;10.564;2023-08-06T07:25:25;17.78;63.11
80132;SHT30;69442;51.442;10.564;2023-08-06T07:27:50;17.86;62.99
80132;SHT30;69442;51.442;10.564;2023-08-06T07:30:16;17.93;62.92
80132;SHT30;69442;51.442;10.564;2023-08-06T07:32:42;18.00;62.85
80132;SHT30;69442;51.442;10.564;2023-08-06T07:35:07;18.06;62.79
80132;SHT30;69442;51.442;10.564;2023-08-06T07:37:37;18.14;62.78
80132;SHT30;69442;51.442;10.564;2023-08-06T07:40:03;18.19;62.78
80132;SHT30;69442;51.442;10.564;2023-08-06T07:42:29;18.28;62.78
80132;SHT30;69442;51.442;10.564;2023-08-06T07:44:56;18.38;62.82
80132;SHT30;69442;51.442;10.564;2023-08-06T07:47:22;18.45;62.88
80132;SHT30;69442;51.442;10.564;2023-08-06T07:49:47;18.55;63.00
80132;SHT30;69442;51.442;10.564;2023-08-06T07:52:13;18.59;62.93
80132;SHT30;69442;51.442;10.564;2023-08-06T07:54:38;18.68;62.85
80132;SHT30;69442;51.442;10.564;2023-08-06T07:57:04;18.77;62.88
80132;SHT30;69442;51.442;10.564;2023-08-06T07:59:29;18.83;62.93
80132;SHT30;69442;51.442;10.564;2023-08-06T08:01:55;18.85;62.86
80132;SHT30;69442;51.442;10.564;2023-08-06T08:04:21;18.95;62.82
80132;SHT30;69442;51.442;10.564;2023-08-06T08:06:46;19.00;62.77
80132;SHT30;69442;51.442;10.564;2023-08-06T08:09:12;19.09;62.81
80132;SHT30;69442;51.442;10.564;2023-08-06T08:11:39;19.16;62.69
80132;SHT30;69442;51.442;10.564;2023-08-06T08:14:04;19.23;62.62
80132;SHT30;69442;51.442;10.564;2023-08-06T08:16:29;19.30;62.35
80132;SHT30;69442;51.442;10.564;2023-08-06T08:18:55;19.37;62.42
80132;SHT30;69442;51.442;10.564;2023-08-06T08:21:21;19.46;62.58
80132;SHT30;69442;51.442;10.564;2023-08-06T08:23:50;19.52;62.39
80132;SHT30;69442;51.442;10.564;2023-08-06T08:26:16;19.60;62.11
80132;SHT30;69442;51.442;10.564;2023-08-06T08:28:41;19.66;62.13
80132;SHT30;69442;51.442;10.564;2023-08-06T08:31:10;19.73;62.33
80132;SHT30;69442;51.442;10.564;2023-08-06T08:33:37;19.82;62.07
80132;SHT30;69442;51.442;10.564;2023-08-06T08:36:03;19.88;62.00
80132;SHT30;69442;51.442;10.564;2023-08-06T08:38:28;19.98;62.02
80132;SHT30;69442;51.442;10.564;2023-08-06T08:40:54;20.09;61.92
80132;SHT30;69442;51.442;10.564;2023-08-06T08:43:21;20.16;61.91
80132;SHT30;69442;51.442;10.564;2023-08-06T08:45:50;20.25;61.92
80132;SHT30;69442;51.442;10.564;2023-08-06T08:48:16;20.35;61.90
80132;SHT30;69442;51.442;10.564;2023-08-06T08:50:44;20.44;61.95
80132;SHT30;69442;51.442;10.564;2023-08-06T08:53:11;20.52;61.78
80132;SHT30;69442;51.442;10.564;2023-08-06T08:55:38;20.63;61.69
80132;SHT30;69442;51.442;10.564;2023-08-06T08:58:04;20.73;61.64
80132;SHT30;69442;51.442;10.564;2023-08-06T09:00:29;20.87;61.47
80132;SHT30;69442;51.442;10.564;2023-08-06T09:02:55;20.95;61.52
80132;SHT30;69442;51.442;10.564;2023-08-06T09:05:23;21.04;61.42
80132;SHT30;69442;51.442;10.564;2023-08-06T09:07:49;21.16;61.26
80132;SHT30;69442;51.442;10.564;2023-08-06T09:10:16;21.25;61.35
80132;SHT30;69442;51.442;10.564;2023-08-06T09:12:48;21.35;61.33
80132;SHT30;69442;51.442;10.564;2023-08-06T09:15:16;21.49;61.20
80132;SHT30;69442;51.442;10.564;2023-08-06T09:17:41;21.60;61.16
80132;SHT30;69442;51.442;10.564;2023-08-06T09:20:13;21.71;61.18
80132;SHT30;69442;51.442;10.564;2023-08-06T09:22:39;21.83;60.92
80132;SHT30;69442;51.442;10.564;2023-08-06T09:25:06;21.92;60.83
80132;SHT30;69442;51.442;10.564;2023-08-06T09:27:36;22.04;60.76
80132;SHT30;69442;51.442;10.564;2023-08-06T09:30:02;22.13;60.71
80132;SHT30;69442;51.442;10.564;2023-08-06T09:32:46;22.26;60.62
80132;SHT30;69442;51.442;10.564;2023-08-06T09:35:16;22.33;60.51
80132;SHT30;69442;51.442;10.564;2023-08-06T09:37:42;22.40;60.36
80132;SHT30;69442;51.442;10.564;2023-08-06T09:40:27;22.52;60.41
80132;SHT30;69442;51.442;10.564;2023-08-06T09:42:53;22.60;60.13
80132;SHT30;69442;51.442;10.564;2023-08-06T09:45:19;22.70;59.96
80132;SHT30;69442;51.442;10.564;2023-08-06T09:47:44;22.74;59.62
80132;SHT30;69442;51.442;10.564;2023-08-06T09:50:19;22.84;59.37
80132;SHT30;69442;51.442;10.564;2023-08-06T09:52:46;22.88;59.47
80132;SHT30;69442;51.442;10.564;2023-08-06T09:55:13;22.94;59.33
80132;SHT30;69442;51.442;10.564;2023-08-06T09:57:40;22.99;59.27
80132;SHT30;69442;51.442;10.564;2023-08-06T10:00:07;23.08;59.20
80132;SHT30;69442;51.442;10.564;2023-08-06T10:02:38;23.14;59.13
80132;SHT30;69442;51.442;10.564;2023-08-06T10:05:05;23.22;58.98
80132;SHT30;69442;51.442;10.564;2023-08-06T10:07:32;23.30;58.88
80132;SHT30;69442;51.442;10.564;2023-08-06T10:09:58;23.38;59.02
80132;SHT30;69442;51.442;10.564;2023-08-06T10:12:25;23.50;59.02
80132;SHT30;69442;51.442;10.564;2023-08-06T10:14:54;23.61;58.95
80132;SHT30;69442;51.442;10.564;2023-08-06T10:17:21;23.79;58.74
80132;SHT30;69442;51.442;10.564;2023-08-06T10:19:48;23.93;58.40
80132;SHT30;69442;51.442;10.564;2023-08-06T10:22:15;24.04;58.11
80132;SHT30;69442;51.442;10.564;2023-08-06T10:24:54;24.12;57.72
80132;SHT30;69442;51.442;10.564;2023-08-06T10:27:29;24.18;57.24
80132;SHT30;69442;51.442;10.564;2023-08-06T10:30:32;24.26;56.54
80132;SHT30;69442;51.442;10.564;2023-08-06T10:33:02;24.33;57.08
80132;SHT30;69442;51.442;10.564;2023-08-06T10:38:03;24.50;57.08
80132;SHT30;69442;51.442;10.564;2023-08-06T10:40:29;24.61;57.04
80132;SHT30;69442;51.442;10.564;2023-08-06T10:42:58;24.71;56.91
80132;SHT30;69442;51.442;10.564;2023-08-06T10:45:29;24.81;56.49
80132;SHT30;69442;51.442;10.564;2023-08-06T10:47:56;24.91;56.52
80132;SHT30;69442;51.442;10.564;2023-08-06T10:50:23;25.05;56.39
80132;SHT30;69442;51.442;10.564;2023-08-06T10:52:48;25.12;56.37
80132;SHT30;69442;51.442;10.564;2023-08-06T10:55:14;25.26;56.37
80132;SHT30;69442;51.442;10.564;2023-08-06T10:57:47;25.36;56.04
80132;SHT30;69442;51.442;10.564;2023-08-06T11:00:12;25.40;55.75
80132;SHT30;69442;51.442;10.564;2023-08-06T11:02:39;25.47;55.37
80132;SHT30;69442;51.442;10.564;2023-08-06T11:05:08;25.50;55.13
80132;SHT30;69442;51.442;10.564;2023-08-06T11:07:37;25.53;55.20
80132;SHT30;69442;51.442;10.564;2023-08-06T11:10:04;25.57;55.32
80132;SHT30;69442;51.442;10.564;2023-08-06T11:12:30;25.57;54.94
80132;SHT30;69442;51.442;10.564;2023-08-06T11:14:56;25.59;54.80
80132;SHT30;69442;51.442;10.564;2023-08-06T11:17:21;25.61;54.40
80132;SHT30;69442;51.442;10.564;2023-08-06T11:19:47;25.59;54.33
80132;SHT30;69442;51.442;10.564;2023-08-06T11:22:14;25.60;54.47
80132;SHT30;69442;51.442;10.564;2023-08-06T11:24:41;25.60;54.58
80132;SHT30;69442;51.442;10.564;2023-08-06T11:27:13;25.60;54.38
80132;SHT30;69442;51.442;10.564;2023-08-06T11:29:40;25.59;54.56
80132;SHT30;69442;51.442;10.564;2023-08-06T11:32:07;25.59;54.51
80132;SHT30;69442;51.442;10.564;2023-08-06T11:34:32;25.63;54.47
80132;SHT30;69442;51.442;10.564;2023-08-06T11:36:58;25.69;54.52
80132;SHT30;69442;51.442;10.564;2023-08-06T11:39:23;25.73;54.39
80132;SHT30;69442;51.442;10.564;2023-08-06T11:41:49;25.77;54.23
80132;SHT30;69442;51.442;10.564;2023-08-06T11:44:14;25.77;54.21
80132;SHT30;69442;51.442;10.564;2023-08-06T11:46:53;25.77;53.77
80132;SHT30;69442;51.442;10.564;2023-08-06T11:49:36;25.82;54.10
80132;SHT30;69442;51.442;10.564;2023-08-06T11:52:14;25.80;53.39
80132;SHT30;69442;51.442;10.564;2023-08-06T11:54:41;25.81;53.88
80132;SHT30;69442;51.442;10.564;2023-08-06T11:57:07;25.81;53.78
80132;SHT30;69442;51.442;10.564;2023-08-06T11:59:33;25.81;53.72
80132;SHT30;69442;51.442;10.564;2023-08-06T12:02:03;25.82;53.68
80132;SHT30;69442;51.442;10.564;2023-08-06T12:04:31;25.91;53.79
80132;SHT30;69442;51.442;10.564;2023-08-06T12:07:04;25.95;53.51
80132;SHT30;69442;51.442;10.564;2023-08-06T12:09:30;26.06;53.75
80132;SHT30;69442;51.442;10.564;2023-08-06T12:11:55;26.16;53.54
80132;SHT30;69442;51.442;10.564;2023-08-06T12:14:20;26.28;53.35
80132;SHT30;69442;51.442;10.564;2023-08-06T12:16:46;26.37;53.19
80132;SHT30;69442;51.442;10.564;2023-08-06T12:19:11;26.44;52.98
80132;SHT30;69442;51.442;10.564;2023-08-06T12:21:37;26.53;52.77
80132;SHT30;69442;51.442;10.564;2023-08-06T12:24:02;26.57;52.72
80132;SHT30;69442;51.442;10.564;2023-08-06T12:26:28;26.60;52.42
80132;SHT30;69442;51.442;10.564;2023-08-06T12:28:53;26.63;52.46
80132;SHT30;69442;51.442;10.564;2023-08-06T12:31:20;26.64;52.27
80132;SHT30;69442;51.442;10.564;2023-08-06T12:33:45;26.65;52.19
80132;SHT30;69442;51.442;10.564;2023-08-06T12:36:11;26.70;52.01
80132;SHT30;69442;51.442;10.564;2023-08-06T12:38:36;26.81;51.92
80132;SHT30;69442;51.442;10.564;2023-08-06T12:41:02;26.91;51.68
80132;SHT30;69442;51.442;10.564;2023-08-06T12:43:27;27.02;51.41
80132;SHT30;69442;51.442;10.564;2023-08-06T12:45:54;27.16;51.45
80132;SHT30;69442;51.442;10.564;2023-08-06T12:48:19;27.33;51.26
80132;SHT30;69442;51.442;10.564;2023-08-06T12:50:45;27.47;51.06
80132;SHT30;69442;51.442;10.564;2023-08-06T12:53:10;27.57;50.66
80132;SHT30;69442;51.442;10.564;2023-08-06T12:55:35;27.65;50.47
80132;SHT30;69442;51.442;10.564;2023-08-06T12:58:01;27.74;50.15
80132;SHT30;69442;51.442;10.564;2023-08-06T13:00:26;27.77;49.71
80132;SHT30;69442;51.442;10.564;2023-08-06T13:02:52;27.80;49.85
80132;SHT30;69442;51.442;10.564;2023-08-06T13:05:17;27.80;49.40
80132;SHT30;69442;51.442;10.564;2023-08-06T13:07:42;27.81;49.45
80132;SHT30;69442;51.442;10.564;2023-08-06T13:10:08;27.77;48.91
80132;SHT30;69442;51.442;10.564;2023-08-06T13:12:33;27.71;48.72
80132;SHT30;69442;51.442;10.564;2023-08-06T13:14:59;27.68;49.08
80132;SHT30;69442;51.442;10.564;2023-08-06T13:17:24;27.70;49.06
80132;SHT30;69442;51.442;10.564;2023-08-06T13:19:50;27.67;48.54
80132;SHT30;69442;51.442;10.564;2023-08-06T13:22:15;27.67;48.44
80132;SHT30;69442;51.442;10.564;2023-08-06T13:24:40;27.68;48.37
80132;SHT30;69442;51.442;10.564;2023-08-06T13:27:06;27.73;48.72
80132;SHT30;69442;51.442;10.564;2023-08-06T13:29:32;27.78;48.71
80132;SHT30;69442;51.442;10.564;2023-08-06T13:31:57;27.84;48.81
80132;SHT30;69442;51.442;10.564;2023-08-06T13:34:23;27.92;48.90
80132;SHT30;69442;51.442;10.564;2023-08-06T13:36:48;28.02;49.31
80132;SHT30;69442;51.442;10.564;2023-08-06T13:39:15;28.05;48.86
80132;SHT30;69442;51.442;10.564;2023-08-06T13:41:42;28.09;47.90
80132;SHT30;69442;51.442;10.564;2023-08-06T13:44:07;28.08;48.04
80132;SHT30;69442;51.442;10.564;2023-08-06T13:46:33;28.02;48.08
80132;SHT30;69442;51.442;10.564;2023-08-06T13:48:58;28.02;48.36
80132;SHT30;69442;51.442;10.564;2023-08-06T13:51:23;27.99;48.09
80132;SHT30;69442;51.442;10.564;2023-08-06T13:53:49;27.94;48.07
80132;SHT30;69442;51.442;10.564;2023-08-06T13:56:14;27.90;48.19
80132;SHT30;69442;51.442;10.564;2023-08-06T13:58:43;27.82;47.55
80132;SHT30;69442;51.442;10.564;2023-08-06T14:01:10;27.76;47.19
80132;SHT30;69442;51.442;10.564;2023-08-06T14:03:36;27.67;47.25
80132;SHT30;69442;51.442;10.564;2023-08-06T14:06:01;27.60;46.75
80132;SHT30;69442;51.442;10.564;2023-08-06T14:08:27;27.49;46.29
80132;SHT30;69442;51.442;10.564;2023-08-06T14:10:53;27.38;46.02
80132;SHT30;69442;51.442;10.564;2023-08-06T14:13:18;27.25;46.72
80132;SHT30;69442;51.442;10.564;2023-08-06T14:15:44;27.13;47.94
80132;SHT30;69442;51.442;10.564;2023-08-06T14:18:12;27.01;48.64
80132;SHT30;69442;51.442;10.564;2023-08-06T14:20:38;26.87;49.26
80132;SHT30;69442;51.442;10.564;2023-08-06T14:23:03;26.77;49.61
80132;SHT30;69442;51.442;10.564;2023-08-06T14:25:29;26.64;49.80
80132;SHT30;69442;51.442;10.564;2023-08-06T14:27:54;26.51;49.71
80132;SHT30;69442;51.442;10.564;2023-08-06T14:30:20;26.37;49.86
80132;SHT30;69442;51.442;10.564;2023-08-06T14:32:45;26.29;50.16
80132;SHT30;69442;51.442;10.564;2023-08-06T14:35:10;26.21;50.03
80132;SHT30;69442;51.442;10.564;2023-08-06T14:37:36;26.16;50.08
80132;SHT30;69442;51.442;10.564;2023-08-06T14:40:01;26.16;50.70
80132;SHT30;69442;51.442;10.564;2023-08-06T14:42:27;26.14;50.70
80132;SHT30;69442;51.442;10.564;2023-08-06T14:44:52;26.16;50.68
80132;SHT30;69442;51.442;10.564;2023-08-06T14:47:18;26.12;51.03
80132;SHT30;69442;51.442;10.564;2023-08-06T14:49:43;26.14;51.26
80132;SHT30;69442;51.442;10.564;2023-08-06T14:52:10;26.15;51.44
80132;SHT30;69442;51.442;10.564;2023-08-06T14:54:35;26.15;51.46
80132;SHT30;69442;51.442;10.564;2023-08-06T14:57:01;26.15;51.04
80132;SHT30;69442;51.442;10.564;2023-08-06T14:59:26;26.19;50.65
80132;SHT30;69442;51.442;10.564;2023-08-06T15:01:51;26.21;50.43
80132;SHT30;69442;51.442;10.564;2023-08-06T15:04:17;26.23;50.39
80132;SHT30;69442;51.442;10.564;2023-08-06T15:06:44;26.23;50.28
80132;SHT30;69442;51.442;10.564;2023-08-06T15:09:09;26.21;50.47
80132;SHT30;69442;51.442;10.564;2023-08-06T15:11:36;26.25;50.26
80132;SHT30;69442;51.442;10.564;2023-08-06T15:14:01;26.26;50.05
80132;SHT30;69442;51.442;10.564;2023-08-06T15:16:30;26.29;49.99
80132;SHT30;69442;51.442;10.564;2023-08-06T15:18:55;26.29;49.85